Time;durP1;ratioP1;P1;durP2;ratioP2;P2;SDS_P1;SDS_P2;PMS_P1;PMS_P2;Temp;Humidity;BMP_temperature;BMP_pressure;BME280_temperature;BME280_humidity;BME280_pressure;Samples;Min_cycle;Max_cycle;Signal;HPM_P1;HPM_P2
2022/05/04 00:01:58;;;;;;;9.15;3.78;;;;;;;11.18;46.99;100130.56;4954829;29;20063;-60
2022/05/04 00:04:25;;;;;;;7.03;3.60;;;;;;;11.16;47.16;100133.28;4954384;29;20051;-59
2022/05/04 00:06:52;;;;;;;7.97;3.83;;;;;;;11.16;47.13;100132.41;4954941;29;20051;-58
2022/05/04 00:09:18;;;;;;;12.48;4.30;;;;;;;11.14;47.13;100134.31;4954442;29;20437;-61
2022/05/04 00:11:45;;;;;;;12.25;4.03;;;;;;;11.12;47.34;100131.75;4954434;29;20063;-62
2022/05/04 00:14:12;;;;;;;9.77;3.60;;;;;;;11.12;47.42;100137.00;4954487;29;20051;-61
2022/05/04 00:16:39;;;;;;;6.88;3.97;;;;;;;11.10;47.25;100141.50;4954153;29;20547;-60
2022/05/04 00:19:05;;;;;;;12.38;4.07;;;;;;;11.06;47.45;100142.59;4953955;29;20055;-64
2022/05/04 00:21:32;;;;;;;11.02;4.18;;;;;;;11.03;47.26;100135.69;4954478;29;20058;-59
2022/05/04 00:23:59;;;;;;;13.68;4.15;;;;;;;11.01;47.43;100144.63;4954382;29;20049;-60
2022/05/04 00:26:25;;;;;;;10.02;3.92;;;;;;;10.98;47.30;100145.63;4954387;29;20067;-61
2022/05/04 00:28:52;;;;;;;7.57;4.07;;;;;;;10.95;47.58;100132.63;4954201;29;20456;-60
2022/05/04 00:31:18;;;;;;;12.57;4.60;;;;;;;10.93;47.69;100134.50;4952630;29;20136;-61
2022/05/04 00:33:45;;;;;;;15.93;4.05;;;;;;;10.91;47.67;100134.56;4953860;29;20487;-60
2022/05/04 00:36:12;;;;;;;9.52;4.10;;;;;;;10.88;47.80;100132.09;4954104;29;20051;-61
2022/05/04 00:38:38;;;;;;;12.13;4.25;;;;;;;10.86;47.84;100135.75;4954461;29;20051;-60
2022/05/04 00:41:05;;;;;;;8.13;4.40;;;;;;;10.85;47.80;100131.41;4953828;29;20115;-61
2022/05/04 00:43:32;;;;;;;9.55;4.57;;;;;;;10.81;48.10;100142.09;4953972;29;20086;-61
2022/05/04 00:45:58;;;;;;;9.20;4.15;;;;;;;10.80;48.09;100137.78;4953665;29;20075;-59
2022/05/04 00:48:25;;;;;;;13.05;4.15;;;;;;;10.78;48.25;100137.00;4952671;28;20112;-61
2022/05/04 00:50:54;;;;;;;12.88;4.30;;;;;;;10.76;48.06;100133.59;4953572;29;20062;-62
2022/05/04 00:53:21;;;;;;;14.43;3.95;;;;;;;10.74;48.23;100130.19;4946027;29;20054;-58
2022/05/04 00:55:49;;;;;;;7.03;3.55;;;;;;;10.72;48.38;100134.69;4953530;29;20051;-60
2022/05/04 01:01:02;;;;;;;9.20;3.72;;;;;;;10.72;48.41;100139.13;4953575;29;20468;-58
2022/05/04 01:03:30;;;;;;;13.63;3.65;;;;;;;10.73;48.64;100136.38;4953832;29;20410;-58
2022/05/04 01:05:57;;;;;;;9.57;3.67;;;;;;;10.74;48.72;100132.84;4953428;29;20043;-60
2022/05/04 01:08:23;;;;;;;8.82;3.90;;;;;;;10.77;48.69;100134.44;4953667;29;20055;-62
2022/05/04 01:10:50;;;;;;;12.43;3.55;;;;;;;10.80;48.96;100132.50;4953217;29;20051;-60
2022/05/04 01:13:19;;;;;;;8.45;3.60;;;;;;;10.84;49.38;100127.91;4953437;29;20055;-57
2022/05/04 01:15:47;;;;;;;12.13;4.57;;;;;;;10.89;49.15;100132.97;4952415;29;20058;-61
2022/05/04 01:18:14;;;;;;;11.98;4.30;;;;;;;10.95;49.19;100136.13;4936187;29;20563;-62
2022/05/04 01:20:41;;;;;;;10.07;3.47;;;;;;;10.99;48.96;100135.97;4952875;29;20049;-60
2022/05/04 01:23:08;;;;;;;13.02;4.38;;;;;;;11.03;49.04;100126.97;4953115;29;20057;-60
2022/05/04 01:25:34;;;;;;;8.93;4.07;;;;;;;11.05;48.79;100131.22;4953388;29;20504;-60
2022/05/04 01:28:01;;;;;;;12.27;3.95;;;;;;;11.07;48.85;100131.97;4953119;29;20051;-59
2022/05/04 01:30:32;;;;;;;8.13;4.07;;;;;;;11.10;48.68;100122.22;4952842;29;20058;-60
2022/05/04 01:32:59;;;;;;;13.43;3.80;;;;;;;11.08;48.34;100136.34;4953073;29;20445;-61
2022/05/04 01:35:26;;;;;;;8.82;3.78;;;;;;;11.09;48.28;100134.53;4951721;29;20075;-60
2022/05/04 01:37:53;;;;;;;12.65;3.90;;;;;;;11.08;48.23;100131.06;4952723;29;20051;-57
2022/05/04 01:40:20;;;;;;;11.68;4.40;;;;;;;11.04;48.20;100129.53;4952467;29;20055;-61
2022/05/04 01:42:46;;;;;;;9.43;3.97;;;;;;;11.01;48.36;100129.69;4952602;29;20051;-61
2022/05/04 01:45:13;;;;;;;8.23;3.40;;;;;;;10.98;48.07;100129.00;4952743;29;20063;-60
2022/05/04 01:47:40;;;;;;;11.00;3.42;;;;;;;10.91;48.04;100129.31;4952645;29;20062;-57
2022/05/04 01:50:07;;;;;;;9.27;3.90;;;;;;;10.87;48.02;100129.56;4952223;29;20526;-60
2022/05/04 01:52:33;;;;;;;10.77;3.75;;;;;;;10.81;48.01;100130.72;4952392;29;20051;-60
2022/05/04 01:55:01;;;;;;;12.82;3.40;;;;;;;10.74;48.15;100132.84;4952669;29;20062;-58
2022/05/04 01:57:28;;;;;;;13.32;3.53;;;;;;;10.67;48.47;100126.16;4935403;29;20047;-59
2022/05/04 01:59:55;;;;;;;10.23;3.75;;;;;;;10.62;48.16;100128.19;4951768;28;20062;-60
2022/05/04 02:02:22;;;;;;;11.05;3.53;;;;;;;10.55;48.21;100135.56;4952577;29;20055;-60
2022/05/04 02:04:50;;;;;;;15.00;3.85;;;;;;;10.51;48.25;100137.47;4952448;29;20510;-59
2022/05/04 02:07:17;;;;;;;11.25;3.45;;;;;;;10.46;48.38;100128.97;4952276;29;20499;-60
2022/05/04 02:09:44;;;;;;;9.43;4.15;;;;;;;10.42;48.30;100127.38;4952681;29;20061;-59
2022/05/04 02:12:11;;;;;;;8.93;3.97;;;;;;;10.36;48.33;100123.28;4951135;29;20085;-60
2022/05/04 02:14:38;;;;;;;11.85;3.42;;;;;;;10.31;48.42;100125.28;4935166;29;20046;-61
2022/05/04 02:17:05;;;;;;;12.32;3.65;;;;;;;10.28;48.71;100131.56;4952213;29;20436;-58
2022/05/04 02:19:31;;;;;;;10.45;4.10;;;;;;;10.24;48.64;100126.53;4951595;29;20107;-60
2022/05/04 02:21:58;;;;;;;11.13;3.60;;;;;;;10.21;48.63;100124.88;4950837;29;20119;-58
2022/05/04 02:24:24;;;;;;;11.25;3.90;;;;;;;10.17;48.90;100124.19;4952515;29;20047;-57
2022/05/04 02:26:51;;;;;;;9.55;3.55;;;;;;;10.14;48.55;100132.22;4952312;29;20513;-57
2022/05/04 02:29:18;;;;;;;9.50;3.78;;;;;;;10.11;48.63;100129.78;4951906;29;20051;-61
2022/05/04 02:31:44;;;;;;;8.73;3.90;;;;;;;10.08;48.64;100126.44;4951831;29;20047;-60
2022/05/04 02:34:11;;;;;;;6.40;3.38;;;;;;;10.04;48.76;100134.50;4951993;29;20120;-59
2022/05/04 02:39:23;;;;;;;15.60;4.07;;;;;;;9.98;48.70;100129.50;4951693;29;20054;-59
2022/05/04 02:41:52;;;;;;;11.77;4.00;;;;;;;9.96;48.99;100126.13;4952120;29;20051;-58
2022/05/04 02:44:18;;;;;;;8.80;3.88;;;;;;;9.94;48.97;100124.50;4951932;29;20055;-62
2022/05/04 02:46:48;;;;;;;7.15;3.50;;;;;;;9.90;49.57;100122.00;4951913;29;20055;-57
2022/05/04 02:49:15;;;;;;;11.27;3.88;;;;;;;9.89;49.23;100119.44;4951936;29;20055;-59
2022/05/04 02:51:42;;;;;;;13.50;4.03;;;;;;;9.87;49.26;100116.03;4952278;29;20062;-61
2022/05/04 02:54:09;;;;;;;15.88;3.72;;;;;;;9.84;49.31;100113.56;4951906;29;20055;-60
2022/05/04 02:56:35;;;;;;;19.23;3.92;;;;;;;9.81;49.39;100111.94;4952216;29;20051;-60
2022/05/04 02:59:03;;;;;;;22.80;4.93;;;;;;;9.78;49.45;100106.81;4951989;29;20054;-59
2022/05/04 03:04:15;;;;;;;13.85;4.70;;;;;;;9.75;49.58;100105.19;4952076;29;20115;-60
2022/05/04 03:06:42;;;;;;;9.68;4.13;;;;;;;9.74;49.74;100106.13;4951842;29;20054;-59
2022/05/04 03:09:10;;;;;;;20.63;4.72;;;;;;;9.74;50.10;100107.88;4951384;29;20051;-62
2022/05/04 03:11:57;;;;;;;19.17;5.13;;;;;;;9.71;49.72;100106.25;4935762;29;20051;-60
2022/05/04 03:14:25;;;;;;;10.75;4.03;;;;;;;9.70;49.77;100109.81;4955212;29;20483;-57
2022/05/04 03:16:53;;;;;;;10.15;4.00;;;;;;;9.68;49.86;100103.75;4938573;29;20058;-60
2022/05/04 03:19:21;;;;;;;11.60;3.95;;;;;;;9.66;50.15;100108.25;4955081;29;20055;-60
2022/05/04 03:21:48;;;;;;;14.05;4.40;;;;;;;9.66;49.91;100108.25;4955290;29;20047;-61
2022/05/04 03:24:15;;;;;;;12.32;4.25;;;;;;;9.64;49.99;100115.34;4937849;29;20085;-61
2022/05/04 03:26:42;;;;;;;19.80;4.72;;;;;;;9.62;50.22;100107.56;4955347;29;20055;-59
2022/05/04 03:29:09;;;;;;;21.13;4.45;;;;;;;9.61;50.16;100110.25;4954847;29;20642;-59
2022/05/04 03:31:36;;;;;;;11.70;4.60;;;;;;;9.60;50.11;100105.91;4955189;29;20057;-61
2022/05/04 03:34:04;;;;;;;11.30;4.90;;;;;;;9.57;50.43;100099.03;4954852;29;20057;-59
2022/05/04 03:36:32;;;;;;;14.00;4.43;;;;;;;9.59;50.64;100101.56;4955045;29;20055;-57
2022/05/04 03:39:00;;;;;;;10.57;5.03;;;;;;;9.60;50.84;100100.66;4954749;29;20052;-59
2022/05/04 03:41:26;;;;;;;15.98;4.88;;;;;;;9.62;50.59;100091.78;4954485;29;20058;-59
2022/05/04 03:43:54;;;;;;;10.27;4.32;;;;;;;9.67;50.82;100094.19;4955271;29;20055;-62
2022/05/04 03:46:23;;;;;;;13.13;4.65;;;;;;;9.69;50.94;100096.75;4954992;29;20411;-59
2022/05/04 03:48:58;;;;;;;9.52;4.13;;;;;;;9.69;51.48;100099.38;4953773;29;20051;-60
2022/05/04 03:51:25;;;;;;;12.57;4.13;;;;;;;9.74;50.77;100094.75;4953293;29;20057;-59
2022/05/04 03:53:53;;;;;;;13.82;4.18;;;;;;;9.75;51.16;100089.41;4955077;29;20062;-60
2022/05/04 03:56:20;;;;;;;10.68;4.20;;;;;;;9.77;50.89;100084.91;4937714;29;20055;-59
2022/05/04 03:58:47;;;;;;;7.63;3.67;;;;;;;9.80;50.84;100086.56;4954693;29;20058;-58
2022/05/04 04:01:14;;;;;;;12.25;4.47;;;;;;;9.82;50.76;100097.84;4954632;29;20054;-58
2022/05/04 04:03:41;;;;;;;13.90;4.50;;;;;;;9.85;50.84;100100.34;4955045;29;20685;-61
2022/05/04 04:06:08;;;;;;;9.77;4.03;;;;;;;9.88;50.72;100094.06;4954110;29;20443;-59
2022/05/04 04:08:34;;;;;;;7.78;4.10;;;;;;;9.89;51.00;100096.63;4954938;29;20062;-60
2022/05/04 04:11:01;;;;;;;12.43;4.20;;;;;;;9.94;50.78;100101.66;4953673;29;20440;-57
2022/05/04 04:13:28;;;;;;;12.18;4.72;;;;;;;9.96;50.85;100096.31;4954030;29;20051;-61
2022/05/04 04:15:55;;;;;;;9.02;4.10;;;;;;;10.00;50.99;100104.00;4953921;29;20058;-60
2022/05/04 04:18:23;;;;;;;8.75;4.22;;;;;;;10.03;51.13;100103.81;4953820;29;20055;-59
2022/05/04 04:23:37;;;;;;;11.52;4.05;;;;;;;10.13;50.99;100106.03;4953494;28;20055;-60
2022/05/04 04:26:06;;;;;;;7.55;3.75;;;;;;;10.17;51.47;100104.94;4954405;29;20048;-59
2022/05/04 04:28:34;;;;;;;11.63;3.80;;;;;;;10.22;51.27;100113.47;4937504;29;20058;-60
2022/05/04 04:31:02;;;;;;;13.15;4.47;;;;;;;10.25;51.01;100101.94;4954080;29;20059;-61
2022/05/04 04:33:29;;;;;;;9.48;3.63;;;;;;;10.28;51.11;100107.88;4953132;29;20501;-60
2022/05/04 04:35:56;;;;;;;13.55;3.92;;;;;;;10.32;51.20;100105.09;4953020;29;20134;-57
2022/05/04 04:38:23;;;;;;;12.75;3.70;;;;;;;10.35;51.00;100102.31;4936780;29;20077;-59
2022/05/04 04:40:50;;;;;;;9.88;4.25;;;;;;;10.38;50.79;100100.38;4952745;29;20101;-59
2022/05/04 04:43:17;;;;;;;13.93;4.18;;;;;;;10.40;50.97;100097.69;4953736;29;20538;-61
2022/05/04 04:45:44;;;;;;;10.05;4.65;;;;;;;10.40;50.76;100100.31;4936844;29;20055;-57
2022/05/04 04:48:12;;;;;;;10.20;4.40;;;;;;;10.38;50.78;100100.38;4952902;29;20055;-56
2022/05/04 04:50:38;;;;;;;11.90;4.43;;;;;;;10.39;50.85;100103.88;4954071;29;20630;-58
2022/05/04 04:53:05;;;;;;;12.80;4.85;;;;;;;10.39;50.86;100109.13;4954016;29;20060;-60
2022/05/04 04:55:32;;;;;;;8.73;4.18;;;;;;;10.39;50.97;100114.41;4953546;29;20134;-60
2022/05/04 04:57:58;;;;;;;8.23;3.85;;;;;;;10.40;51.00;100105.56;4952046;29;20479;-61
2022/05/04 05:00:25;;;;;;;11.32;4.22;;;;;;;10.40;50.95;100114.28;4951794;29;20061;-59
2022/05/04 05:02:52;;;;;;;8.45;3.65;;;;;;;10.43;50.94;100118.53;4952708;29;20444;-59
2022/05/04 05:05:19;;;;;;;9.88;3.45;;;;;;;10.45;51.06;100108.84;4952837;29;20050;-62
2022/05/04 05:07:45;;;;;;;8.45;3.30;;;;;;;10.47;50.80;100106.97;4951694;29;20062;-60
2022/05/04 05:10:12;;;;;;;8.20;3.70;;;;;;;10.48;50.87;100100.81;4953159;29;20051;-60
2022/05/04 05:12:39;;;;;;;8.88;3.45;;;;;;;10.50;50.88;100106.00;4953031;29;20066;-59
2022/05/04 05:17:51;;;;;;;9.25;3.42;;;;;;;10.52;50.82;100115.50;4953235;29;20491;-60
2022/05/04 05:20:18;;;;;;;8.40;3.55;;;;;;;10.53;50.94;100117.19;4953002;29;20055;-59
2022/05/04 05:22:45;;;;;;;15.65;4.10;;;;;;;10.55;50.78;100112.69;4953103;29;20130;-59
2022/05/04 05:25:12;;;;;;;14.82;4.20;;;;;;;10.58;50.75;100116.13;4953163;29;20055;-60
2022/05/04 05:27:38;;;;;;;10.15;3.67;;;;;;;10.62;50.90;100117.66;4953372;29;20059;-59
2022/05/04 05:30:06;;;;;;;10.00;3.67;;;;;;;10.64;50.78;100100.84;4952952;29;20047;-60
2022/05/04 05:32:32;;;;;;;10.32;3.60;;;;;;;10.66;50.60;100098.16;4951761;29;20051;-59
2022/05/04 05:34:59;;;;;;;7.32;3.17;;;;;;;10.68;50.71;100104.16;4952107;28;20066;-60
2022/05/04 05:37:25;;;;;;;10.27;3.72;;;;;;;10.70;50.64;100112.84;4952874;29;20627;-59
2022/05/04 05:39:52;;;;;;;10.48;3.60;;;;;;;10.71;50.73;100100.53;4952501;29;20055;-60
2022/05/04 05:42:19;;;;;;;7.00;2.53;;;;;;;10.74;51.02;100101.22;4935869;29;20066;-60
2022/05/04 05:44:46;;;;;;;8.25;3.08;;;;;;;10.79;51.01;100100.97;4952767;29;20047;-58
2022/05/04 05:47:13;;;;;;;10.88;3.50;;;;;;;10.84;51.15;100098.94;4952809;29;20051;-58
2022/05/04 05:49:39;;;;;;;9.52;3.22;;;;;;;10.91;51.07;100107.38;4952744;29;20063;-60
2022/05/04 05:52:09;;;;;;;9.88;2.83;;;;;;;10.94;51.02;100102.81;4952570;29;20118;-61
2022/05/04 05:54:36;;;;;;;9.13;3.05;;;;;;;11.01;50.82;100102.47;4951262;29;20521;-57
2022/05/04 05:57:03;;;;;;;9.48;3.22;;;;;;;11.04;50.65;100097.91;4952853;29;20063;-61
2022/05/04 05:59:29;;;;;;;9.50;3.55;;;;;;;11.09;50.78;100102.91;4951411;29;20063;-61
2022/05/04 06:01:56;;;;;;;10.75;3.38;;;;;;;11.13;50.76;100101.81;4952621;29;20110;-61
2022/05/04 06:04:23;;;;;;;9.10;3.30;;;;;;;11.17;50.65;100095.44;4952327;29;20135;-59
2022/05/04 06:06:49;;;;;;;11.13;3.92;;;;;;;11.21;50.76;100101.41;4952256;29;20059;-59
2022/05/04 06:09:16;;;;;;;8.93;3.15;;;;;;;11.25;50.84;100100.31;4935369;29;20059;-58
2022/05/04 06:11:42;;;;;;;9.82;3.53;;;;;;;11.30;50.69;100105.34;4952442;29;20055;-61
2022/05/04 06:14:10;;;;;;;9.85;3.35;;;;;;;11.33;50.69;100110.44;4952250;29;20059;-59
2022/05/04 06:16:37;;;;;;;12.82;3.92;;;;;;;11.38;50.97;100110.19;4952667;29;20384;-59
2022/05/04 06:19:04;;;;;;;10.88;3.65;;;;;;;11.43;50.83;100113.41;4952064;29;20130;-60
2022/05/04 06:21:30;;;;;;;13.50;3.80;;;;;;;11.49;51.14;100104.31;4952038;29;20051;-58
2022/05/04 06:23:57;;;;;;;14.25;4.18;;;;;;;11.55;50.61;100106.63;4952241;29;20487;-59
2022/05/04 06:26:24;;;;;;;8.95;3.88;;;;;;;11.61;50.83;100103.63;4952259;29;20436;-59
2022/05/04 06:28:50;;;;;;;9.45;3.85;;;;;;;11.68;50.81;100118.19;4952594;29;20055;-58
2022/05/04 06:34:10;;;;;;;9.00;3.85;;;;;;;11.82;50.65;100119.19;4952134;29;20059;-60
2022/05/04 06:36:41;;;;;;;13.00;3.58;;;;;;;11.88;50.88;100118.84;4952316;29;20701;-60
2022/05/04 06:39:09;;;;;;;9.82;3.90;;;;;;;11.97;50.58;100125.41;4934949;29;20048;-60
2022/05/04 06:41:36;;;;;;;10.85;3.80;;;;;;;12.04;50.21;100129.34;4935536;29;20051;-60
2022/05/04 06:44:04;;;;;;;11.70;3.80;;;;;;;12.11;50.08;100130.75;4952135;29;20047;-58
2022/05/04 06:46:30;;;;;;;10.18;3.85;;;;;;;12.19;50.05;100137.38;4936108;29;20078;-59
2022/05/04 06:48:57;;;;;;;10.07;3.78;;;;;;;12.24;49.89;100136.19;4956085;29;20070;-65
2022/05/04 06:51:24;;;;;;;9.18;3.63;;;;;;;12.29;49.96;100135.91;4956025;29;20047;-58
2022/05/04 06:53:51;;;;;;;12.88;4.18;;;;;;;12.34;49.90;100135.66;4956176;29;20055;-59
2022/05/04 06:56:38;;;;;;;11.55;4.28;;;;;;;12.38;49.38;100132.72;4955557;29;20054;-60
2022/05/04 06:59:04;;;;;;;19.08;4.45;;;;;;;12.43;49.68;100136.88;4938451;29;20087;-59
2022/05/04 07:01:31;;;;;;;12.20;4.10;;;;;;;12.47;49.53;100141.03;4955639;29;20047;-56
2022/05/04 07:03:58;;;;;;;8.50;3.85;;;;;;;12.50;49.49;100135.59;4955712;29;20057;-61
2022/05/04 07:06:24;;;;;;;14.25;3.97;;;;;;;12.55;49.56;100136.16;4955663;29;20529;-60
2022/05/04 07:08:52;;;;;;;15.57;4.13;;;;;;;12.60;49.33;100127.97;4955655;29;20050;-59
2022/05/04 07:11:18;;;;;;;8.90;4.40;;;;;;;12.66;49.41;100134.66;4954222;29;20063;-58
2022/05/04 07:13:45;;;;;;;9.77;3.67;;;;;;;12.72;49.24;100129.03;4955314;29;20112;-56
2022/05/04 07:16:11;;;;;;;10.07;3.78;;;;;;;12.77;49.08;100124.31;4955538;29;20540;-59
2022/05/04 07:18:38;;;;;;;9.85;3.70;;;;;;;12.81;49.08;100123.19;4955572;29;20051;-60
2022/05/04 07:21:05;;;;;;;11.88;3.67;;;;;;;12.86;49.09;100121.09;4955209;29;20066;-60
2022/05/04 07:23:31;;;;;;;13.65;4.43;;;;;;;12.93;49.15;100118.09;4955385;29;20107;-60
2022/05/04 07:25:58;;;;;;;14.15;3.72;;;;;;;12.99;49.16;100121.22;4955066;29;20047;-58
2022/05/04 07:28:26;;;;;;;11.75;4.13;;;;;;;13.03;48.55;100119.22;4955143;29;20127;-61
2022/05/04 07:30:53;;;;;;;12.38;4.00;;;;;;;13.09;48.65;100125.94;4955133;29;20047;-59
2022/05/04 07:33:20;;;;;;;12.52;3.63;;;;;;;13.13;48.55;100123.00;4955443;29;20762;-58
2022/05/04 07:35:47;;;;;;;12.70;3.70;;;;;;;13.18;48.45;100125.38;4955060;29;20475;-60
2022/05/04 07:38:14;;;;;;;11.20;4.00;;;;;;;13.23;48.39;100128.56;4955178;29;20051;-59
2022/05/04 07:43:26;;;;;;;8.30;4.00;;;;;;;13.35;48.38;100128.75;4955068;29;20464;-60
2022/05/04 07:45:52;;;;;;;8.05;3.17;;;;;;;13.41;48.32;100131.84;4955096;29;20051;-62
2022/05/04 07:48:19;;;;;;;8.70;3.45;;;;;;;13.50;48.41;100132.25;4955316;29;20502;-60
2022/05/04 07:50:45;;;;;;;9.30;3.35;;;;;;;13.58;48.24;100124.69;4954770;29;20149;-57
2022/05/04 07:53:12;;;;;;;10.70;3.63;;;;;;;13.68;48.33;100124.94;4954868;29;20062;-59
2022/05/04 07:55:39;;;;;;;9.98;3.92;;;;;;;13.79;48.31;100126.88;4954751;29;20558;-60
2022/05/04 07:58:05;;;;;;;9.70;3.72;;;;;;;13.91;48.19;100135.84;4953919;28;20055;-60
2022/05/04 08:06:03;;;;;;;9.25;3.47;;;;;;;14.30;47.45;100128.00;4954439;29;20114;-59
2022/05/04 08:08:31;;;;;;;10.43;3.70;;;;;;;14.38;47.58;100131.00;4954695;29;20079;-60
2022/05/04 08:11:01;;;;;;;9.95;3.10;;;;;;;14.46;47.13;100136.63;4954749;29;20076;-59
2022/05/04 08:13:28;;;;;;;9.98;3.55;;;;;;;14.53;47.12;100133.53;4953307;29;20054;-60
2022/05/04 08:15:54;;;;;;;7.63;3.05;;;;;;;14.58;46.67;100136.75;4954289;29;20051;-60
2022/05/04 08:18:21;;;;;;;6.40;2.70;;;;;;;14.61;46.20;100133.88;4937550;29;20058;-58
2022/05/04 08:20:48;;;;;;;10.88;3.05;;;;;;;14.66;46.08;100138.88;4954169;29;20055;-60
2022/05/04 08:23:16;;;;;;;12.15;3.38;;;;;;;14.69;45.95;100142.16;4954297;29;20388;-59
2022/05/04 08:25:45;;;;;;;7.70;3.20;;;;;;;14.73;46.22;100143.66;4937204;29;20049;-60
2022/05/04 08:28:14;;;;;;;7.53;3.00;;;;;;;14.75;46.20;100135.59;4954051;29;20055;-60
2022/05/04 08:30:41;;;;;;;7.00;2.78;;;;;;;14.80;46.10;100138.81;4953568;29;20118;-59
2022/05/04 08:33:08;;;;;;;7.97;2.88;;;;;;;14.85;46.12;100144.63;4954281;29;20056;-61
2022/05/04 08:35:34;;;;;;;10.10;3.33;;;;;;;14.89;45.92;100137.34;4954134;29;20047;-60
2022/05/04 08:38:01;;;;;;;10.35;3.30;;;;;;;14.95;45.85;100147.50;4954247;29;20051;-60
2022/05/04 08:40:29;;;;;;;8.50;3.35;;;;;;;15.02;46.17;100139.13;4954080;29;20650;-59
2022/05/04 08:42:57;;;;;;;9.30;2.78;;;;;;;15.11;45.87;100138.50;4936746;29;20047;-59
2022/05/04 08:45:24;;;;;;;8.25;3.20;;;;;;;15.19;46.01;100141.44;4936875;29;20061;-58
2022/05/04 08:47:51;;;;;;;8.15;3.03;;;;;;;15.29;45.86;100144.28;4953891;29;20456;-57
2022/05/04 08:50:18;;;;;;;9.70;3.40;;;;;;;15.36;45.80;100131.44;4953941;29;20491;-57
2022/05/04 08:52:53;;;;;;;9.93;3.38;;;;;;;15.43;45.36;100130.03;4953732;29;20054;-60
2022/05/04 08:55:24;;;;;;;7.03;2.88;;;;;;;15.49;45.21;100142.88;4953808;29;20047;-60
2022/05/04 08:57:51;;;;;;;9.15;2.85;;;;;;;15.54;45.19;100144.31;4953988;29;20055;-62
2022/05/04 09:00:18;;;;;;;8.88;2.97;;;;;;;15.57;45.49;100144.13;4936583;29;20405;-60
2022/05/04 09:02:45;;;;;;;8.80;3.28;;;;;;;15.62;46.01;100136.66;4953620;29;20110;-60
2022/05/04 09:05:17;;;;;;;12.07;3.65;;;;;;;15.68;45.66;100136.25;4953932;29;20086;-60
2022/05/04 09:07:47;;;;;;;10.50;3.97;;;;;;;15.77;45.45;100132.91;4952413;29;20107;-57
2022/05/04 09:10:23;;;;;;;8.15;3.47;;;;;;;15.81;45.26;100135.34;4936029;29;20282;-57
2022/05/04 09:12:52;;;;;;;18.15;3.92;;;;;;;15.90;45.51;100124.06;4953411;29;20051;-62
2022/05/04 09:15:23;;;;;;;12.90;3.95;;;;;;;15.95;45.65;100121.94;4953661;29;20102;-60
2022/05/04 09:18:05;;;;;;;14.23;4.22;;;;;;;15.98;44.70;100119.06;4952361;29;20499;-63
2022/05/04 09:20:49;;;;;;;15.75;3.83;;;;;;;16.06;44.83;100122.94;4952043;29;20051;-60
2022/05/04 09:23:22;;;;;;;9.43;3.80;;;;;;;16.14;45.78;100121.41;4953478;29;20470;-61
2022/05/04 09:25:53;;;;;;;9.55;3.60;;;;;;;16.25;45.83;100115.28;4953330;29;20051;-59
2022/05/04 09:28:24;;;;;;;9.18;3.70;;;;;;;16.33;45.33;100112.03;4936251;29;20062;-60
2022/05/04 09:30:54;;;;;;;9.50;4.05;;;;;;;16.44;45.43;100115.72;4953072;29;20051;-60
2022/05/04 09:33:26;;;;;;;11.52;4.00;;;;;;;16.52;44.85;100123.94;4953328;29;20055;-59
2022/05/04 09:35:56;;;;;;;10.32;3.70;;;;;;;16.59;44.88;100124.34;4936350;29;20051;-59
2022/05/04 09:46:47;;;;;;;9.25;3.78;;;;;;;16.97;45.47;100112.50;4953268;29;20055;-60
2022/05/04 09:49:18;;;;;;;8.38;3.83;;;;;;;17.06;43.78;100117.16;4951614;29;20055;-59
2022/05/04 09:51:54;;;;;;;9.55;3.72;;;;;;;17.12;43.38;100114.97;4936125;29;20116;-60
2022/05/04 09:54:23;;;;;;;9.65;3.70;;;;;;;17.20;44.06;100112.56;4953353;29;20080;-59
2022/05/04 09:57:02;;;;;;;10.88;3.80;;;;;;;17.21;43.61;100108.94;4953004;29;20055;-58
2022/05/04 09:59:31;;;;;;;9.60;3.88;;;;;;;17.29;44.31;100111.81;4951605;29;20380;-59
2022/05/04 10:02:00;;;;;;;9.77;3.80;;;;;;;17.33;44.26;100101.78;4952679;29;20055;-63
2022/05/04 10:04:28;;;;;;;9.20;4.25;;;;;;;17.40;44.63;100096.81;4952703;29;20105;-60
2022/05/04 10:07:07;;;;;;;10.02;3.63;;;;;;;17.51;44.40;100094.13;4951903;29;20043;-60
2022/05/04 10:09:35;;;;;;;11.40;4.05;;;;;;;17.62;44.89;100095.91;4952683;29;20055;-61
2022/05/04 10:12:03;;;;;;;7.93;3.72;;;;;;;17.75;44.08;100090.41;4952623;29;20499;-60
2022/05/04 10:14:29;;;;;;;8.07;3.97;;;;;;;17.87;44.61;100091.22;4951363;29;20055;-60
2022/05/04 10:17:10;;;;;;;6.53;4.15;;;;;;;17.98;44.18;100088.53;4951017;29;20055;-62
2022/05/04 10:19:46;;;;;;;7.63;4.05;;;;;;;18.09;42.85;100087.66;4952155;29;20134;-60
2022/05/04 10:22:20;;;;;;;8.80;3.85;;;;;;;18.22;43.36;100089.28;4935104;29;20051;-60
2022/05/04 10:24:48;;;;;;;10.07;4.55;;;;;;;18.34;43.49;100093.59;4935325;29;20055;-60
2022/05/04 10:27:23;;;;;;;11.55;5.05;;;;;;;18.45;43.32;100089.16;4935841;29;20055;-60
2022/05/04 10:32:46;;;;;;;8.93;4.30;;;;;;;18.74;43.35;100085.81;4952251;29;20069;-62
2022/05/04 10:35:22;;;;;;;7.78;4.63;;;;;;;18.89;43.10;100084.47;4952268;29;20051;-60
2022/05/04 10:37:52;;;;;;;9.10;5.45;;;;;;;19.12;42.36;100087.00;4950949;29;20047;-61
2022/05/04 10:40:24;;;;;;;11.30;5.40;;;;;;;19.34;42.17;100082.44;4950791;29;20051;-60
2022/05/04 10:42:55;;;;;;;12.30;5.22;;;;;;;19.57;42.26;100078.66;4951024;29;20058;-61
2022/05/04 10:45:24;;;;;;;8.55;4.82;;;;;;;19.81;41.92;100070.25;4952387;29;20067;-60
2022/05/04 10:47:51;;;;;;;9.07;4.55;;;;;;;20.04;42.62;100078.84;4951262;29;20051;-62
2022/05/04 10:50:18;;;;;;;9.30;5.03;;;;;;;20.30;42.39;100072.91;4951642;29;20111;-61
2022/05/04 10:52:48;;;;;;;10.70;5.40;;;;;;;20.62;42.40;100070.03;4934987;29;20133;-57
2022/05/04 10:55:16;;;;;;;10.75;5.32;;;;;;;21.03;42.03;100077.78;4934770;29;20043;-60
2022/05/04 10:57:43;;;;;;;11.07;4.88;;;;;;;21.44;42.33;100072.06;4951994;29;20047;-61
2022/05/04 11:00:30;;;;;;;5.70;4.75;;;;;;;21.94;41.43;100065.38;4952001;29;20043;-60
2022/05/04 11:02:56;;;;;;;8.43;4.97;;;;;;;22.43;41.25;100058.69;4951941;29;20459;-61
2022/05/04 11:05:23;;;;;;;8.52;4.80;;;;;;;22.94;40.22;100057.16;4951836;29;20051;-62
2022/05/04 11:07:50;;;;;;;6.45;4.75;;;;;;;23.50;39.54;100059.34;4951871;29;20047;-60
2022/05/04 11:10:18;;;;;;;7.05;5.07;;;;;;;24.02;39.16;100057.38;4951438;29;20057;-62
2022/05/04 11:12:44;;;;;;;11.05;5.07;;;;;;;24.56;37.11;100058.69;4951762;29;20063;-60
2022/05/04 11:15:11;;;;;;;6.70;4.90;;;;;;;25.05;37.47;100051.47;4951589;29;20058;-60
2022/05/04 11:17:38;;;;;;;7.72;4.43;;;;;;;25.49;36.80;100048.19;4952218;29;20051;-61
2022/05/04 11:20:12;;;;;;;8.98;4.80;;;;;;;25.85;34.21;100059.41;4951519;29;20504;-60
2022/05/04 11:22:39;;;;;;;7.35;4.38;;;;;;;26.14;34.46;100055.97;4951840;29;20518;-60
2022/05/04 11:25:16;;;;;;;8.75;4.88;;;;;;;26.37;34.51;100052.41;4951879;29;20055;-60
2022/05/04 11:27:43;;;;;;;7.60;4.25;;;;;;;26.58;33.81;100050.00;4951749;29;20118;-62
2022/05/04 11:30:10;;;;;;;8.35;4.45;;;;;;;26.71;33.58;100046.63;4951844;29;20059;-61
2022/05/04 11:32:39;;;;;;;5.07;3.70;;;;;;;26.77;32.33;100045.91;4952505;28;20551;-61
2022/05/04 11:35:13;;;;;;;11.85;4.07;;;;;;;26.74;32.51;100033.59;4955012;29;20051;-60
2022/05/04 11:37:39;;;;;;;5.00;3.80;;;;;;;26.82;32.32;100039.91;4954001;29;20055;-61
2022/05/04 11:40:12;;;;;;;10.48;4.28;;;;;;;26.82;31.80;100040.75;4954706;29;20056;-61
2022/05/04 11:42:40;;;;;;;5.82;3.70;;;;;;;26.88;32.36;100036.47;4937961;29;20062;-60
2022/05/04 11:45:08;;;;;;;7.78;3.90;;;;;;;26.95;32.84;100039.28;4954652;29;20067;-60
2022/05/04 11:47:35;;;;;;;9.85;4.63;;;;;;;27.09;32.54;100034.91;4954918;29;20055;-61
2022/05/04 11:50:05;;;;;;;8.68;4.47;;;;;;;27.27;32.30;100035.31;4954072;29;20055;-61
2022/05/04 11:52:32;;;;;;;7.90;4.07;;;;;;;27.54;33.34;100026.63;4953513;29;20061;-63
2022/05/04 11:55:03;;;;;;;9.45;4.20;;;;;;;27.77;30.71;100031.03;4954676;29;20051;-69
2022/05/04 11:57:39;;;;;;;6.05;3.90;;;;;;;27.91;30.01;100038.22;4954697;29;20055;-60
2022/05/04 12:00:14;;;;;;;7.28;3.47;;;;;;;27.80;29.53;100027.91;4954234;29;20073;-60
2022/05/04 12:02:42;;;;;;;7.55;4.00;;;;;;;27.57;28.90;100028.94;4953439;29;20055;-60